• Join FlightAware (Why Join?)
  • Login
  • US Flag 
10:34AM EDT


 

Airport Tracker/Info


-or-


 

Live Flight TrackerFlight Track Log ✈ CHQ6401 ✈ 23-Jul-2013 ✈ KDTW - KSYR

Flight Track Log - Related Links

Times and Time Zones

All times are in EDT time to prevent confusion due to time zone crossing. See the CHQ6401 flight status page for this flight to view local times or setup timezone preferences in your user account.

Time Position Orientation Groundspeed Altitude Reporting Facility
EDT Latitude Longitude Course Direction KTS MPH feet Rate Location/Type
02:44PM 42.2036 -83.3556 79° East 152 175 1,100  Level Cleveland Center
02:45PM 42.1453 -83.3528 178° South 197 227 3,400 1,860 Climbing Cleveland Center
02:46PM 42.0872 -83.3447 174° South 227 261 5,300 1,920 Climbing Cleveland Center
02:47PM 42.0417 -83.3317 168° South 245 282 6,500 2,160 Climbing Cleveland Center
02:48PM 42.0394 -83.2450 92° East 259 298 8,800 2,100 Climbing Cleveland Center
02:49PM 42.3146 -82.7222 78° East  Level FlightAware Approximate
02:49PM 42.0606 -83.1506 73° East 275 316 10,700  Level Cleveland Center
02:50PM 42.3342 -82.5941 79° East  Level FlightAware Approximate
02:50PM 42.0836 -83.0453 74° East 280 322 12,400  Level Cleveland Center
02:51PM 42.1069 -82.9314 75° East 291 335 13,500 1,500 Climbing Cleveland Center
02:52PM 42.1300 -82.8147 75° East 306 352 15,400 1,800 Climbing Cleveland Center
02:53PM 42.1531 -82.6978 75° East 318 366 17,200 1,800 Climbing Cleveland Center
02:54PM 42.1781 -82.5808 74° East 318 366 19,000 1,680 Climbing Cleveland Center
02:55PM 42.2053 -82.4583 73° East 318 366 20,600 1,500 Climbing Cleveland Center
02:56PM 42.2300 -82.3331 75° East 330 380 22,100 1,200 Climbing Cleveland Center
02:57PM 42.2403 -82.1986 84° East 341 392 23,000 420 Climbing Cleveland Center
02:58PM 42.2569 -82.0561 81° East 364 419 23,000 300 Level Cleveland Center
02:59PM 42.2981 -81.9278 67° East 371 427 23,600 840 Climbing Cleveland Center
03:00PM 42.3642 -81.8083 53° Northeast 376 433 24,700 1,020 Climbing Cleveland Center
03:01PM 42.4339 -81.6917 51° Northeast 390 449 25,700 1,020 Climbing Cleveland Center
03:02PM 42.5017 -81.5717 53° Northeast 402 463 26,800 600 Climbing Cleveland Center
03:03PM 42.5758 -81.4517 50° Northeast 411 473 27,000 60 Climbing Cleveland Center
03:04PM 42.6536 -81.3256 50° Northeast 421 484 27,000  Level Cleveland Center
03:05PM 42.7317 -81.2050 49° Northeast 426 490 27,000  Level Cleveland Center
03:06PM 42.8008 -81.0981 49° Northeast 426 490 27,000  Level Cleveland Center
03:07PM 42.8764 -80.9742 50° Northeast 426 490 27,000  Level Cleveland Center
03:08PM 42.9414 -80.8411 56° Northeast 420 483 27,000  Level Cleveland Center
03:09PM 42.9833 -80.7000 68° East 410 472 27,000  Level Toronto Center
03:10PM 42.9833 -80.5500 90° East 400 460 27,000  Level Toronto Center
03:11PM 43.0000 -80.4000 81° East 400 460 27,000  Level Toronto Center
03:12PM 43.0000 -80.2333 90° East 420 483 27,000  Level Toronto Center
03:13PM 43.0167 -80.0667 82° East 430 495 27,000  Level Toronto Center
03:14PM 43.0167 -79.9000 90° East 430 495 27,000  Level Toronto Center
03:16PM 43.0333 -79.5833 86° East 440 506 27,000  Level Toronto Center
03:17PM 43.0500 -79.4333 81° East 440 506 27,000  Level Toronto Center
03:18PM 43.0500 -79.2500 90° East 440 506 27,000  Level Toronto Center
03:19PM 43.0667 -79.0833 82° East 440 506 27,000  Level Toronto Center
03:20PM 43.0667 -78.9333 90° East 440 506 27,000  Level Toronto Center
03:21PM 43.0833 -78.7500 83° East 440 506 27,000  Level Toronto Center
03:22PM 43.0833 -78.5833 90° East 440 506 27,000  Level Toronto Center
03:23PM 43.0986 -78.4194 83° East 443 510 27,000 -120 Level Cleveland Center
03:24PM 43.1058 -78.2542 87° East 443 510 26,800 -900 Descending Cleveland Center
03:25PM 43.1106 -78.0836 88° East 443 510 25,200 -1,740 Descending Cleveland Center
03:26PM 43.1156 -77.9269 87° East 433 498 23,400 -1,800 Descending Cleveland Center
03:27PM 43.1203 -77.7758 87° East 418 481 21,700 -1,740 Descending Cleveland Center
03:28PM 43.1228 -77.6336 89° East 393 452 20,000 -1,740 Descending Cleveland Center
03:29PM 43.1297 -77.4936 86° East 375 432 18,300 -1,920 Descending Cleveland Center
03:30PM 43.1319 -77.3486 89° East 363 418 16,200 -1,920 Descending Cleveland Center
03:31PM 43.1364 -77.2117 87° East 358 412 14,500 -1,740 Descending Cleveland Center
03:33PM 43.1447 -76.9569 87° East 323 372 11,100 -1,260 Descending Boston Center
03:34PM 43.1333 -76.8167 96° East 320 368 11,000 -480 Descending Toronto Center
03:35PM 43.1500 -76.7000 79° East 310 357 10,300 -900 Descending Toronto Center
03:36PM 43.1333 -76.6000 103° East 290 334 9,200 -1,200 Descending Toronto Center
03:37PM 43.1333 -76.4833 90° East 310 357 8,000 -1,020 Descending Toronto Center
03:38PM 43.1622 -76.3658 71° East 278 320 6,800 -900 Descending Boston Center
03:39PM 43.1761 -76.2642 79° East 270 311 5,900 -900 Descending Boston Center
03:40PM 43.1878 -76.1681 81° East 250 288 5,000 -1,260 Descending Boston Center
03:41PM 43.2033 -76.0722 77° East 256 295 3,400 -1,320 Descending Boston Center
03:42PM 43.1764 -75.9994 117° Southeast 222 255 2,500 -1,020 Descending Boston Center